createdAt,value
2018-06-03T00:01:19.374Z,34.63
2018-06-03T00:03:46.881Z,37.27
2018-06-03T00:06:14.377Z,39.37
2018-06-03T00:08:41.875Z,38.73
2018-06-03T00:11:09.393Z,37.70
2018-06-03T00:13:36.955Z,40.07
2018-06-03T00:16:04.468Z,40.67
2018-06-03T00:18:32.124Z,36.40
2018-06-03T00:21:12.401Z,40.17
2018-06-03T00:23:40.053Z,42.53
2018-06-03T00:26:07.590Z,42.63
2018-06-03T00:28:35.098Z,38.73
2018-06-03T00:31:02.626Z,41.03
2018-06-03T00:33:30.153Z,39.17
2018-06-03T00:36:09.593Z,41.73
2018-06-03T00:38:37.197Z,39.93
2018-06-03T00:41:04.728Z,42.83
2018-06-03T00:43:32.242Z,38.37
2018-06-03T00:45:59.750Z,39.40
2018-06-03T00:48:27.266Z,37.17
2018-06-03T00:50:54.769Z,35.67
2018-06-03T00:53:34.574Z,36.50
2018-06-03T00:56:02.082Z,39.23
2018-06-03T00:58:29.581Z,38.33
2018-06-03T01:00:57.085Z,35.13
2018-06-03T01:03:24.594Z,33.67
2018-06-03T01:05:52.110Z,35.43
2018-06-03T01:08:19.656Z,38.27
2018-06-03T01:10:47.149Z,38.17
2018-06-03T01:13:14.667Z,34.00
2018-06-03T01:15:42.166Z,37.23
2018-06-03T01:18:09.676Z,38.63
2018-06-03T01:20:37.185Z,38.87
2018-06-03T01:23:04.697Z,38.80
2018-06-03T01:25:32.209Z,38.57
2018-06-03T01:27:59.737Z,38.30
2018-06-03T01:30:27.231Z,38.13
2018-06-03T01:32:54.733Z,40.40
2018-06-03T01:35:22.250Z,41.33
2018-06-03T01:37:49.758Z,39.90
2018-06-03T01:40:17.274Z,39.50
2018-06-03T01:42:44.786Z,40.77
2018-06-03T01:45:48.852Z,41.03
2018-06-03T01:48:16.449Z,39.07
2018-06-03T01:50:43.960Z,39.37
2018-06-03T01:53:11.450Z,39.93
2018-06-03T01:55:38.972Z,40.20
2018-06-03T01:58:06.483Z,39.73
2018-06-03T02:00:33.982Z,38.97
2018-06-03T02:03:01.500Z,41.10
2018-06-03T02:05:29.000Z,40.97
2018-06-03T02:07:56.511Z,38.97
2018-06-03T02:10:24.016Z,39.50
2018-06-03T02:12:51.538Z,40.17
2018-06-03T02:15:19.040Z,35.43
2018-06-03T02:17:46.562Z,37.83
2018-06-03T02:20:14.062Z,40.00
2018-06-03T02:22:41.553Z,40.43
2018-06-03T02:25:09.055Z,39.33
2018-06-03T02:27:36.570Z,40.63
2018-06-03T02:30:11.296Z,40.13
2018-06-03T02:32:38.802Z,41.20
2018-06-03T02:35:06.310Z,39.87
2018-06-03T02:37:33.822Z,41.63
2018-06-03T02:40:01.341Z,41.37
2018-06-03T02:42:28.832Z,42.53
2018-06-03T02:44:56.339Z,39.60
2018-06-03T02:47:23.846Z,40.90
2018-06-03T02:49:53.461Z,35.93
2018-06-03T02:52:20.957Z,38.80
2018-06-03T02:54:48.447Z,43.30
2018-06-03T02:57:15.956Z,39.27
2018-06-03T02:59:43.478Z,38.33
2018-06-03T03:02:10.966Z,36.67
2018-06-03T03:04:38.461Z,35.50
2018-06-03T03:07:05.980Z,38.77
2018-06-03T03:09:33.509Z,41.00
2018-06-03T03:12:01.011Z,40.70
2018-06-03T03:14:28.531Z,37.57
2018-06-03T03:17:33.726Z,40.93
2018-06-03T03:20:01.240Z,39.77
2018-06-03T03:22:28.747Z,40.10
2018-06-03T03:24:56.261Z,40.67
2018-06-03T03:27:23.758Z,42.73
2018-06-03T03:29:51.279Z,41.00
2018-06-03T03:32:18.799Z,41.53
2018-06-03T03:34:46.304Z,40.87
2018-06-03T03:37:13.822Z,36.87
2018-06-03T03:39:41.348Z,40.13
2018-06-03T03:42:08.861Z,40.07
2018-06-03T03:44:36.361Z,41.50
2018-06-03T03:47:03.894Z,43.07
2018-06-03T03:49:31.438Z,43.77
2018-06-03T03:51:58.941Z,44.60
2018-06-03T03:54:26.449Z,41.30
2018-06-03T03:56:53.943Z,37.90
2018-06-03T03:59:21.572Z,36.17
2018-06-03T04:01:49.078Z,38.53
2018-06-03T04:04:16.575Z,38.63
2018-06-03T04:06:44.065Z,38.40
2018-06-03T04:09:11.584Z,44.40
2018-06-03T04:11:39.123Z,43.20
2018-06-03T04:14:06.621Z,43.10
2018-06-03T04:16:34.142Z,42.97
2018-06-03T04:19:01.639Z,41.33
2018-06-03T04:21:29.135Z,33.23
2018-06-03T04:23:56.693Z,40.13
2018-06-03T04:26:24.204Z,40.23
2018-06-03T04:28:51.719Z,38.47
2018-06-03T04:31:19.233Z,39.23
2018-06-03T04:33:46.722Z,41.40
2018-06-03T04:36:14.230Z,43.37
2018-06-03T04:38:41.742Z,42.53
2018-06-03T04:41:09.279Z,40.20
2018-06-03T04:43:36.778Z,39.23
2018-06-03T04:46:04.294Z,43.60
2018-06-03T04:48:31.828Z,39.53
2018-06-03T04:50:59.345Z,44.37
2018-06-03T04:53:26.859Z,46.57
2018-06-03T04:55:54.436Z,47.20
2018-06-03T04:58:21.932Z,45.20
2018-06-03T05:00:49.452Z,42.13
2018-06-03T05:03:16.958Z,45.43
2018-06-03T05:05:44.453Z,45.57
2018-06-03T05:08:11.979Z,46.03
2018-06-03T05:10:39.480Z,47.87
2018-06-03T05:13:07.049Z,45.63
2018-06-03T05:15:34.576Z,42.93
2018-06-03T05:18:02.072Z,45.90
2018-06-03T05:20:29.589Z,44.60
2018-06-03T05:22:57.088Z,45.00
2018-06-03T05:25:24.591Z,44.73
2018-06-03T05:27:52.324Z,44.37
2018-06-03T05:30:19.868Z,45.27
2018-06-03T05:32:47.363Z,45.27
2018-06-03T05:35:14.868Z,46.43
2018-06-03T05:37:42.418Z,44.53
2018-06-03T05:40:10.011Z,45.70
2018-06-03T05:42:37.602Z,48.13
2018-06-03T05:45:05.106Z,46.53
2018-06-03T05:47:32.606Z,42.87
2018-06-03T05:50:00.125Z,45.63
2018-06-03T05:52:27.622Z,44.37
2018-06-03T05:54:55.124Z,43.97
2018-06-03T05:57:22.627Z,45.03
2018-06-03T05:59:50.144Z,46.03
2018-06-03T06:02:17.660Z,48.67
2018-06-03T06:04:45.174Z,48.17
2018-06-03T06:07:12.690Z,47.40
2018-06-03T06:09:40.193Z,49.83
2018-06-03T06:12:07.697Z,46.90
2018-06-03T06:14:35.201Z,47.13
2018-06-03T06:17:02.726Z,43.77
2018-06-03T06:19:30.229Z,46.77
2018-06-03T06:21:57.911Z,49.50
2018-06-03T06:24:25.436Z,49.07
2018-06-03T06:26:52.955Z,51.13
2018-06-03T06:29:20.457Z,50.17
2018-06-03T06:31:47.990Z,54.70
2018-06-03T06:34:21.425Z,54.60
2018-06-03T06:36:48.938Z,54.13
2018-06-03T06:39:16.439Z,56.63
2018-06-03T06:41:43.951Z,54.50
2018-06-03T06:44:11.471Z,57.23
2018-06-03T06:46:38.981Z,52.13
2018-06-03T06:49:06.489Z,53.80
2018-06-03T06:51:34.059Z,54.10
2018-06-03T06:54:01.574Z,55.00
2018-06-03T06:56:29.084Z,57.00
2018-06-03T06:58:56.597Z,53.70
2018-06-03T07:01:24.105Z,53.53
2018-06-03T07:03:51.632Z,50.20
2018-06-03T07:06:19.134Z,46.07
2018-06-03T07:08:46.638Z,46.23
2018-06-03T07:11:14.159Z,46.63
2018-06-03T07:13:41.654Z,45.73
2018-06-03T07:16:09.315Z,42.03
2018-06-03T07:18:36.842Z,44.37
2018-06-03T07:21:04.336Z,41.47
2018-06-03T07:23:31.858Z,45.83
2018-06-03T07:25:59.388Z,44.27
2018-06-03T07:28:26.896Z,42.87
2018-06-03T07:30:54.417Z,45.67
2018-06-03T07:33:21.969Z,42.57
2018-06-03T07:35:49.469Z,41.90
2018-06-03T07:38:16.998Z,45.57
2018-06-03T07:40:44.529Z,43.70
2018-06-03T07:43:12.120Z,42.87
2018-06-03T07:45:39.625Z,43.47
2018-06-03T07:48:07.235Z,42.13
2018-06-03T07:50:34.745Z,43.57
2018-06-03T07:53:02.349Z,40.27
2018-06-03T07:55:29.862Z,43.53
2018-06-03T07:57:57.368Z,41.30
2018-06-03T08:00:24.882Z,43.97
2018-06-03T08:02:52.395Z,43.83
2018-06-03T08:05:19.897Z,45.50
2018-06-03T08:07:47.444Z,49.17
2018-06-03T08:10:14.938Z,45.10
2018-06-03T08:12:42.441Z,44.27
2018-06-03T08:15:09.959Z,39.97
2018-06-03T08:17:37.467Z,40.93
2018-06-03T08:20:05.007Z,42.20
2018-06-03T08:22:32.514Z,39.93
2018-06-03T08:25:00.057Z,41.33
2018-06-03T08:27:27.582Z,45.23
2018-06-03T08:29:55.145Z,48.63
2018-06-03T08:32:22.620Z,49.93
2018-06-03T08:34:50.148Z,48.73
2018-06-03T08:37:17.638Z,46.27
2018-06-03T08:39:45.138Z,50.43
2018-06-03T08:42:12.639Z,46.50
2018-06-03T08:44:40.140Z,46.60
2018-06-03T08:47:07.656Z,43.30
2018-06-03T08:49:35.164Z,42.53
2018-06-03T08:52:02.688Z,42.13
2018-06-03T08:54:30.184Z,44.00
2018-06-03T08:56:57.686Z,41.70
2018-06-03T08:59:25.182Z,38.77
2018-06-03T09:01:52.711Z,42.50
2018-06-03T09:04:20.246Z,44.47
2018-06-03T09:06:47.747Z,43.17
2018-06-03T09:09:15.266Z,43.63
2018-06-03T09:11:42.762Z,44.57
2018-06-03T09:14:10.259Z,41.50
2018-06-03T09:16:37.769Z,42.30
2018-06-03T09:19:05.269Z,43.27
2018-06-03T09:21:32.770Z,43.80
2018-06-03T09:24:00.278Z,43.27
2018-06-03T09:26:27.791Z,44.43
2018-06-03T09:28:55.298Z,43.57
2018-06-03T09:31:22.818Z,44.13
2018-06-03T09:33:50.305Z,45.80
2018-06-03T09:36:17.819Z,42.70
2018-06-03T09:38:45.349Z,46.27
2018-06-03T09:41:12.851Z,49.53
2018-06-03T09:43:40.351Z,46.20
2018-06-03T09:46:07.871Z,46.73
2018-06-03T09:48:35.393Z,43.87
2018-06-03T09:51:02.904Z,44.87
2018-06-03T09:53:30.420Z,46.13
2018-06-03T09:55:57.930Z,43.30
2018-06-03T09:58:25.437Z,45.17
2018-06-03T10:00:52.937Z,44.47
2018-06-03T10:03:20.458Z,44.37
2018-06-03T10:05:48.014Z,42.50
2018-06-03T10:08:15.514Z,41.77
2018-06-03T10:10:43.031Z,41.47
2018-06-03T10:13:10.552Z,41.47
2018-06-03T10:15:38.062Z,40.10
2018-06-03T10:18:05.582Z,38.03
2018-06-03T10:20:33.391Z,37.57
2018-06-03T10:23:00.901Z,40.03
2018-06-03T10:25:28.543Z,39.33
2018-06-03T10:27:56.091Z,37.43
2018-06-03T10:30:23.626Z,38.33
2018-06-03T10:32:51.130Z,36.83
2018-06-03T10:35:18.651Z,36.03
2018-06-03T10:37:46.157Z,34.50
2018-06-03T10:40:13.683Z,34.13
2018-06-03T10:42:41.176Z,35.13
2018-06-03T10:45:12.362Z,34.80
2018-06-03T10:47:39.894Z,32.93
2018-06-03T10:50:07.412Z,36.97
2018-06-03T10:52:34.929Z,43.77
2018-06-03T10:55:02.475Z,42.03
2018-06-03T10:57:29.986Z,42.03
2018-06-03T10:59:57.514Z,41.37
2018-06-03T11:02:25.027Z,43.63
2018-06-03T11:04:52.540Z,43.03
2018-06-03T11:07:20.045Z,42.73
2018-06-03T11:09:47.586Z,46.40
2018-06-03T11:12:15.085Z,43.23
2018-06-03T11:14:42.601Z,44.93
2018-06-03T11:17:10.110Z,44.37
2018-06-03T11:19:37.610Z,45.07
2018-06-03T11:22:05.130Z,43.37
2018-06-03T11:24:32.648Z,41.63
2018-06-03T11:27:00.175Z,44.00
2018-06-03T11:29:27.679Z,42.87
2018-06-03T11:31:55.195Z,44.33
2018-06-03T11:34:22.699Z,42.70
2018-06-03T11:36:50.200Z,40.70
2018-06-03T11:39:17.712Z,39.70
2018-06-03T11:42:06.169Z,39.43
2018-06-03T11:44:33.680Z,39.53
2018-06-03T11:47:05.204Z,36.87
2018-06-03T11:49:32.724Z,34.90
2018-06-03T11:52:00.228Z,28.67
2018-06-03T11:54:27.757Z,35.60
2018-06-03T11:56:59.233Z,36.27
2018-06-03T11:59:46.658Z,33.20
2018-06-03T12:02:14.179Z,31.13
2018-06-03T12:04:41.674Z,30.93
2018-06-03T12:07:09.180Z,29.07
2018-06-03T12:09:36.711Z,29.20
2018-06-03T12:12:04.221Z,19.33
2018-06-03T12:14:31.771Z,21.27
2018-06-03T12:16:59.288Z,22.63
2018-06-03T12:19:26.793Z,23.87
2018-06-03T12:21:54.318Z,23.87
2018-06-03T12:24:21.821Z,21.37
2018-06-03T12:26:49.321Z,22.40
2018-06-03T12:29:16.824Z,23.80
2018-06-03T12:31:44.334Z,22.20
2018-06-03T12:34:11.834Z,22.53
2018-06-03T12:36:39.405Z,21.83
2018-06-03T12:39:06.925Z,21.67
2018-06-03T12:41:34.433Z,20.23
2018-06-03T12:44:01.984Z,20.13
2018-06-03T12:46:29.489Z,20.10
2018-06-03T12:48:57.001Z,20.40
2018-06-03T12:51:24.739Z,21.47
2018-06-03T12:53:52.272Z,24.83
2018-06-03T12:56:19.786Z,26.10
2018-06-03T12:58:47.309Z,23.70
2018-06-03T13:01:14.813Z,25.33
2018-06-03T13:03:42.321Z,22.37
2018-06-03T13:06:14.315Z,23.53
2018-06-03T13:08:41.815Z,20.67
2018-06-03T13:11:09.323Z,19.83
2018-06-03T13:13:36.828Z,21.93
2018-06-03T13:22:49.977Z,21.17
2018-06-03T13:25:17.719Z,21.70
2018-06-03T13:27:45.231Z,21.97
2018-06-03T13:30:12.762Z,22.07
2018-06-03T13:32:40.280Z,21.33
2018-06-03T13:35:07.793Z,21.90
2018-06-03T13:37:35.349Z,22.97
2018-06-03T13:40:02.905Z,21.27
2018-06-03T13:42:51.297Z,20.60
2018-06-03T13:45:18.809Z,20.40
2018-06-03T13:47:46.310Z,19.17
2018-06-03T13:50:15.148Z,21.60
2018-06-03T13:52:42.806Z,20.30
2018-06-03T13:55:22.865Z,21.33
2018-06-03T13:57:50.358Z,22.97
2018-06-03T14:00:17.856Z,23.00
2018-06-03T14:03:32.330Z,23.93
2018-06-03T14:05:59.845Z,21.33
2018-06-03T14:08:27.364Z,21.40
2018-06-03T14:10:54.885Z,20.13
2018-06-03T14:13:22.387Z,19.33
2018-06-03T14:15:49.905Z,18.07
2018-06-03T14:18:17.399Z,18.83
2018-06-03T14:20:44.898Z,19.43
2018-06-03T14:23:12.405Z,20.93
2018-06-03T14:25:39.903Z,20.73
2018-06-03T14:28:07.413Z,21.27
2018-06-03T14:30:35.877Z,19.40
2018-06-03T14:33:03.384Z,19.20
2018-06-03T14:35:30.924Z,19.93
2018-06-03T14:37:58.427Z,20.77
2018-06-03T14:40:25.938Z,20.17
2018-06-03T14:42:53.603Z,20.43
2018-06-03T14:45:21.120Z,20.70
2018-06-03T14:47:48.644Z,21.13
2018-06-03T14:50:16.219Z,19.27
2018-06-03T14:52:43.721Z,18.43
2018-06-03T14:55:43.005Z,18.93
2018-06-03T14:58:11.689Z,17.47
2018-06-03T15:00:40.306Z,17.17
2018-06-03T15:03:09.605Z,15.33
2018-06-03T15:05:38.333Z,14.40
2018-06-03T15:08:07.679Z,15.33
2018-06-03T15:10:36.222Z,14.20
2018-06-03T15:13:04.812Z,14.07
2018-06-03T15:15:33.793Z,15.50
2018-06-03T15:18:02.446Z,16.17
2018-06-03T15:20:31.351Z,13.73
2018-06-03T15:23:00.029Z,15.80
2018-06-03T15:25:28.642Z,13.17
2018-06-03T15:27:57.370Z,14.70
2018-06-03T15:30:26.058Z,14.97
2018-06-03T15:32:55.202Z,13.10
2018-06-03T15:35:23.816Z,12.87
2018-06-03T15:38:02.035Z,16.13
2018-06-03T15:40:31.014Z,12.90
2018-06-03T15:42:59.686Z,12.00
2018-06-03T15:45:28.396Z,13.50
2018-06-03T15:47:57.103Z,13.23
2018-06-03T15:50:25.761Z,12.10
2018-06-03T15:53:08.533Z,13.10
2018-06-03T15:55:37.205Z,14.90
2018-06-03T15:58:05.791Z,13.27
2018-06-03T16:00:34.454Z,13.13
2018-06-03T16:03:42.898Z,14.83
2018-06-03T16:06:13.233Z,15.10
2018-06-03T16:08:43.716Z,15.47
2018-06-03T16:11:12.346Z,14.80
2018-06-03T16:14:04.717Z,14.37
2018-06-03T16:16:33.406Z,13.27
2018-06-03T16:19:02.095Z,13.40
2018-06-03T16:21:30.770Z,11.93
2018-06-03T16:23:59.798Z,14.80
2018-06-03T16:26:28.538Z,15.43
2018-06-03T16:28:57.659Z,13.87
2018-06-03T16:31:26.402Z,12.53
2018-06-03T16:33:58.985Z,12.33
2018-06-03T16:36:27.598Z,11.77
2018-06-03T16:38:56.270Z,12.67
2018-06-03T16:41:25.018Z,11.33
2018-06-03T16:43:53.702Z,12.30
2018-06-03T16:46:24.080Z,11.57
2018-06-03T16:48:54.107Z,10.87
2018-06-03T16:51:25.633Z,11.37
2018-06-03T16:53:54.968Z,11.57
2018-06-03T16:56:24.121Z,10.30
2018-06-03T16:58:55.785Z,11.13
2018-06-03T17:01:24.786Z,11.57
2018-06-03T17:03:54.399Z,11.00
2018-06-03T17:06:23.659Z,12.00
2018-06-03T17:08:52.385Z,11.47
2018-06-03T17:11:20.988Z,12.63
2018-06-03T17:13:49.800Z,13.90
2018-06-03T17:16:18.885Z,13.30
2018-06-03T17:18:47.638Z,13.30
2018-06-03T17:21:16.345Z,13.17
2018-06-03T17:23:44.972Z,13.57
2018-06-03T17:26:13.583Z,13.93
2018-06-03T17:28:42.196Z,12.10
2018-06-03T17:31:11.472Z,12.60
2018-06-03T17:33:40.177Z,12.77
2018-06-03T17:36:09.760Z,13.17
2018-06-03T17:38:48.481Z,14.33
2018-06-03T17:41:17.402Z,13.40
2018-06-03T17:43:46.165Z,13.47
2018-06-03T17:46:14.841Z,13.37
2018-06-03T17:48:43.546Z,14.00
2018-06-03T17:51:12.270Z,12.53
2018-06-03T17:53:41.449Z,13.97
2018-06-03T17:56:10.206Z,13.00
2018-06-03T17:58:39.027Z,14.20
2018-06-03T18:01:07.698Z,14.17
2018-06-03T18:03:36.393Z,13.57
2018-06-03T18:06:05.075Z,12.90
2018-06-03T18:08:33.778Z,14.13
2018-06-03T18:11:02.577Z,12.77
2018-06-03T18:13:31.246Z,12.83
2018-06-03T18:15:59.863Z,11.47
2018-06-03T18:18:28.492Z,12.83
2018-06-03T18:20:57.204Z,13.03
2018-06-03T18:23:25.867Z,13.30
2018-06-03T18:25:54.505Z,12.27
2018-06-03T18:28:23.363Z,14.03
2018-06-03T18:30:52.226Z,12.67
2018-06-03T18:33:20.916Z,13.90
2018-06-03T18:35:49.545Z,13.33
2018-06-03T18:38:18.209Z,12.23
2018-06-03T18:40:46.904Z,12.80
2018-06-03T18:43:15.665Z,12.10
2018-06-03T18:45:44.353Z,11.47
2018-06-03T18:48:13.041Z,11.23
2018-06-03T18:50:41.706Z,12.33
2018-06-03T18:53:10.418Z,11.30
2018-06-03T18:55:39.102Z,12.17
2018-06-03T18:58:07.792Z,12.10
2018-06-03T19:00:36.464Z,11.63
2018-06-03T19:03:05.150Z,11.60
2018-06-03T19:05:33.878Z,11.33
2018-06-03T19:08:02.542Z,11.33
2018-06-03T19:10:31.250Z,11.10
2018-06-03T19:13:11.350Z,10.83
2018-06-03T19:15:40.053Z,11.27
2018-06-03T19:18:08.778Z,11.43
2018-06-03T19:20:37.491Z,11.57
2018-06-03T19:23:06.364Z,11.00
2018-06-03T19:25:35.156Z,11.07
2018-06-03T19:28:08.005Z,11.30
2018-06-03T19:30:36.687Z,11.23
2018-06-03T19:33:05.535Z,12.10
2018-06-03T19:35:34.909Z,12.33
2018-06-03T19:38:04.078Z,12.67
2018-06-03T19:40:32.813Z,12.23
2018-06-03T19:43:01.536Z,12.40
2018-06-03T19:45:30.225Z,12.37
2018-06-03T19:47:58.919Z,13.07
2018-06-03T19:50:27.587Z,14.00
2018-06-03T19:52:56.191Z,12.70
2018-06-03T19:55:24.953Z,12.93
2018-06-03T19:57:53.588Z,12.93
2018-06-03T20:00:22.660Z,11.53
2018-06-03T20:02:51.788Z,12.30
2018-06-03T20:05:20.490Z,12.67
2018-06-03T20:07:49.595Z,12.50
2018-06-03T20:10:18.421Z,13.20
2018-06-03T20:12:47.182Z,13.40
2018-06-03T20:15:15.991Z,14.57
2018-06-03T20:17:44.852Z,13.53
2018-06-03T20:20:13.843Z,15.27
2018-06-03T20:22:42.486Z,13.83
2018-06-03T20:25:11.290Z,14.30
2018-06-03T20:27:39.996Z,14.20
2018-06-03T20:30:08.780Z,12.23
2018-06-03T20:32:37.529Z,12.60
2018-06-03T20:35:06.216Z,11.13
2018-06-03T20:37:34.935Z,13.83
2018-06-03T20:40:03.638Z,15.43
2018-06-03T20:42:32.396Z,16.50
2018-06-03T20:45:01.050Z,15.50
2018-06-03T20:47:29.818Z,14.73
2018-06-03T20:49:58.450Z,13.10
2018-06-03T20:52:27.364Z,14.73
2018-06-03T20:54:56.064Z,15.10
2018-06-03T20:57:24.677Z,15.63
2018-06-03T20:59:53.424Z,14.90
2018-06-03T21:02:30.198Z,14.33
2018-06-03T21:04:58.919Z,14.07
2018-06-03T21:07:27.965Z,16.40
2018-06-03T21:09:56.753Z,16.40
2018-06-03T21:12:25.468Z,14.80
2018-06-03T21:14:54.141Z,16.87
2018-06-03T21:17:22.881Z,17.27
2018-06-03T21:19:51.582Z,16.33
2018-06-03T21:22:20.309Z,16.37
2018-06-03T21:24:48.964Z,17.87
2018-06-03T21:27:17.668Z,18.30
2018-06-03T21:29:46.368Z,16.70
2018-06-03T21:32:15.113Z,17.80
2018-06-03T21:35:01.746Z,16.47
2018-06-03T21:37:30.467Z,13.63
2018-06-03T21:39:59.069Z,13.37
2018-06-03T21:42:27.669Z,13.73
2018-06-03T21:44:56.499Z,18.90
2018-06-03T21:47:25.286Z,18.07
2018-06-03T21:49:53.932Z,17.77
2018-06-03T21:52:22.619Z,18.70
2018-06-03T21:54:51.354Z,19.17
2018-06-03T21:57:20.243Z,19.20
2018-06-03T21:59:48.894Z,20.00
2018-06-03T22:02:17.595Z,20.10
2018-06-03T22:04:46.271Z,21.37
2018-06-03T22:07:14.912Z,18.70
2018-06-03T22:09:43.626Z,19.70
2018-06-03T22:12:12.338Z,15.90
2018-06-03T22:14:41.174Z,16.90
2018-06-03T22:17:09.801Z,17.40
2018-06-03T22:19:39.125Z,23.73
2018-06-03T22:22:07.812Z,22.77
2018-06-03T22:24:36.483Z,22.43
2018-06-03T22:27:05.181Z,16.80
2018-06-03T22:29:33.871Z,19.50
2018-06-03T22:32:02.534Z,19.30
2018-06-03T22:34:31.139Z,15.73
2018-06-03T22:36:59.832Z,17.13
2018-06-03T22:39:28.485Z,14.70
2018-06-03T22:41:57.064Z,14.73
2018-06-03T22:44:25.895Z,15.00
2018-06-03T22:46:54.489Z,20.10
2018-06-03T22:49:23.173Z,20.50
2018-06-03T22:51:51.863Z,15.13
2018-06-03T22:54:20.463Z,16.93
2018-06-03T22:56:59.780Z,24.53
2018-06-03T22:59:28.469Z,24.23
2018-06-03T23:01:57.209Z,21.93
2018-06-03T23:04:25.913Z,22.50
2018-06-03T23:06:54.634Z,20.87
2018-06-03T23:09:23.283Z,22.87
2018-06-03T23:11:51.989Z,25.10
2018-06-03T23:14:20.764Z,25.57
2018-06-03T23:16:49.438Z,24.40
2018-06-03T23:19:18.106Z,25.07
2018-06-03T23:21:46.714Z,26.60
2018-06-03T23:24:15.277Z,30.87
2018-06-03T23:26:43.894Z,26.03
2018-06-03T23:29:12.456Z,24.37
2018-06-03T23:31:43.247Z,27.17
2018-06-03T23:34:11.883Z,20.23
2018-06-03T23:36:40.553Z,20.00
2018-06-03T23:39:09.169Z,23.67
2018-06-03T23:41:37.866Z,19.83
2018-06-03T23:44:06.450Z,18.53
2018-06-03T23:46:35.105Z,21.87
2018-06-03T23:49:03.844Z,15.87
2018-06-03T23:51:32.474Z,20.80
2018-06-03T23:54:01.720Z,26.57
2018-06-03T23:56:30.311Z,14.93
2018-06-03T23:58:58.959Z,17.07
